sensor_id;sensor_type;location;lat;lon;timestamp;temperature;humidity
2995;DHT22;35277;49.890;8.222;2023-11-19T00:00:12;22.30;70.90
2995;DHT22;35277;49.890;8.222;2023-11-19T00:02:41;22.20;70.80
2995;DHT22;35277;49.890;8.222;2023-11-19T00:05:10;22.30;70.90
2995;DHT22;35277;49.890;8.222;2023-11-19T00:07:40;22.30;70.90
2995;DHT22;35277;49.890;8.222;2023-11-19T00:10:09;22.30;70.90
2995;DHT22;35277;49.890;8.222;2023-11-19T00:12:40;22.30;70.90
2995;DHT22;35277;49.890;8.222;2023-11-19T00:15:09;22.30;70.90
2995;DHT22;35277;49.890;8.222;2023-11-19T00:17:38;22.30;71.00
2995;DHT22;35277;49.890;8.222;2023-11-19T00:20:11;22.30;70.90
2995;DHT22;35277;49.890;8.222;2023-11-19T00:22:40;22.30;71.00
2995;DHT22;35277;49.890;8.222;2023-11-19T00:25:11;22.30;71.00
2995;DHT22;35277;49.890;8.222;2023-11-19T00:27:41;22.30;71.00
2995;DHT22;35277;49.890;8.222;2023-11-19T00:30:11;22.30;71.00
2995;DHT22;35277;49.890;8.222;2023-11-19T00:32:40;22.30;71.00
2995;DHT22;35277;49.890;8.222;2023-11-19T00:35:08;22.30;71.00
2995;DHT22;35277;49.890;8.222;2023-11-19T00:37:37;22.30;71.00
2995;DHT22;35277;49.890;8.222;2023-11-19T00:40:07;22.30;71.00
2995;DHT22;35277;49.890;8.222;2023-11-19T00:42:37;22.30;71.00
2995;DHT22;35277;49.890;8.222;2023-11-19T00:45:06;22.30;71.00
2995;DHT22;35277;49.890;8.222;2023-11-19T00:47:38;22.30;71.00
2995;DHT22;35277;49.890;8.222;2023-11-19T00:50:07;22.30;71.00
2995;DHT22;35277;49.890;8.222;2023-11-19T00:52:36;22.30;71.00
2995;DHT22;35277;49.890;8.222;2023-11-19T00:55:05;22.30;71.00
2995;DHT22;35277;49.890;8.222;2023-11-19T00:57:34;22.30;71.10
2995;DHT22;35277;49.890;8.222;2023-11-19T01:00:03;22.30;71.00
2995;DHT22;35277;49.890;8.222;2023-11-19T01:02:37;22.30;71.00
2995;DHT22;35277;49.890;8.222;2023-11-19T01:05:08;22.30;71.00
2995;DHT22;35277;49.890;8.222;2023-11-19T01:07:36;22.30;71.10
2995;DHT22;35277;49.890;8.222;2023-11-19T01:10:06;22.30;71.10
2995;DHT22;35277;49.890;8.222;2023-11-19T01:12:35;22.30;71.10
2995;DHT22;35277;49.890;8.222;2023-11-19T01:15:05;22.30;71.10
2995;DHT22;35277;49.890;8.222;2023-11-19T01:17:33;22.30;71.10
2995;DHT22;35277;49.890;8.222;2023-11-19T01:20:04;22.30;71.10
2995;DHT22;35277;49.890;8.222;2023-11-19T01:22:33;22.30;71.10
2995;DHT22;35277;49.890;8.222;2023-11-19T01:25:01;22.30;71.10
2995;DHT22;35277;49.890;8.222;2023-11-19T01:27:29;22.30;71.10
2995;DHT22;35277;49.890;8.222;2023-11-19T01:29:57;22.30;71.10
2995;DHT22;35277;49.890;8.222;2023-11-19T01:32:25;22.30;71.10
2995;DHT22;35277;49.890;8.222;2023-11-19T01:34:53;22.30;71.20
2995;DHT22;35277;49.890;8.222;2023-11-19T01:37:22;22.30;71.20
2995;DHT22;35277;49.890;8.222;2023-11-19T01:39:50;22.30;71.20
2995;DHT22;35277;49.890;8.222;2023-11-19T01:42:21;22.30;71.30
2995;DHT22;35277;49.890;8.222;2023-11-19T01:44:57;22.30;71.30
2995;DHT22;35277;49.890;8.222;2023-11-19T01:47:25;22.30;71.30
2995;DHT22;35277;49.890;8.222;2023-11-19T01:49:54;22.30;71.30
2995;DHT22;35277;49.890;8.222;2023-11-19T01:52:25;22.30;71.40
2995;DHT22;35277;49.890;8.222;2023-11-19T01:54:54;22.30;71.30
2995;DHT22;35277;49.890;8.222;2023-11-19T01:57:22;22.30;71.30
2995;DHT22;35277;49.890;8.222;2023-11-19T01:59:52;22.30;71.40
2995;DHT22;35277;49.890;8.222;2023-11-19T02:02:20;22.30;71.40
2995;DHT22;35277;49.890;8.222;2023-11-19T02:04:50;22.30;71.40
2995;DHT22;35277;49.890;8.222;2023-11-19T02:07:18;22.30;71.40
2995;DHT22;35277;49.890;8.222;2023-11-19T02:09:48;22.30;71.40
2995;DHT22;35277;49.890;8.222;2023-11-19T02:12:17;22.30;71.40
2995;DHT22;35277;49.890;8.222;2023-11-19T02:14:47;22.30;71.40
2995;DHT22;35277;49.890;8.222;2023-11-19T02:17:27;22.30;71.40
2995;DHT22;35277;49.890;8.222;2023-11-19T02:19:55;22.30;71.40
2995;DHT22;35277;49.890;8.222;2023-11-19T02:22:23;22.30;71.40
2995;DHT22;35277;49.890;8.222;2023-11-19T02:24:58;22.30;71.40
2995;DHT22;35277;49.890;8.222;2023-11-19T02:27:31;22.30;71.40
2995;DHT22;35277;49.890;8.222;2023-11-19T02:30:02;22.30;71.40
2995;DHT22;35277;49.890;8.222;2023-11-19T02:32:32;22.30;71.40
2995;DHT22;35277;49.890;8.222;2023-11-19T02:35:01;22.30;71.40
2995;DHT22;35277;49.890;8.222;2023-11-19T02:37:31;22.30;71.40
2995;DHT22;35277;49.890;8.222;2023-11-19T02:39:59;22.30;71.40
2995;DHT22;35277;49.890;8.222;2023-11-19T02:42:36;22.30;71.50
2995;DHT22;35277;49.890;8.222;2023-11-19T02:45:08;22.30;71.40
2995;DHT22;35277;49.890;8.222;2023-11-19T02:47:40;22.30;71.50
2995;DHT22;35277;49.890;8.222;2023-11-19T02:50:10;22.30;71.40
2995;DHT22;35277;49.890;8.222;2023-11-19T02:52:42;22.30;71.40
2995;DHT22;35277;49.890;8.222;2023-11-19T02:55:11;22.30;71.50
2995;DHT22;35277;49.890;8.222;2023-11-19T02:57:41;22.30;71.50
2995;DHT22;35277;49.890;8.222;2023-11-19T03:00:17;22.30;71.40
2995;DHT22;35277;49.890;8.222;2023-11-19T03:02:45;22.30;71.40
2995;DHT22;35277;49.890;8.222;2023-11-19T03:05:15;22.30;71.40
2995;DHT22;35277;49.890;8.222;2023-11-19T03:07:43;22.30;71.50
2995;DHT22;35277;49.890;8.222;2023-11-19T03:10:12;22.30;71.50
2995;DHT22;35277;49.890;8.222;2023-11-19T03:12:40;22.30;71.50
2995;DHT22;35277;49.890;8.222;2023-11-19T03:15:09;22.30;71.60
2995;DHT22;35277;49.890;8.222;2023-11-19T03:17:38;22.30;71.60
2995;DHT22;35277;49.890;8.222;2023-11-19T03:20:07;22.30;71.60
2995;DHT22;35277;49.890;8.222;2023-11-19T03:22:37;22.30;71.60
2995;DHT22;35277;49.890;8.222;2023-11-19T03:25:04;22.30;71.60
2995;DHT22;35277;49.890;8.222;2023-11-19T03:27:35;22.30;71.60
2995;DHT22;35277;49.890;8.222;2023-11-19T03:30:03;22.30;71.60
2995;DHT22;35277;49.890;8.222;2023-11-19T03:32:31;22.30;71.60
2995;DHT22;35277;49.890;8.222;2023-11-19T03:35:02;22.30;71.60
2995;DHT22;35277;49.890;8.222;2023-11-19T03:37:31;22.30;71.60
2995;DHT22;35277;49.890;8.222;2023-11-19T03:40:00;22.30;71.70
2995;DHT22;35277;49.890;8.222;2023-11-19T03:42:29;22.30;71.60
2995;DHT22;35277;49.890;8.222;2023-11-19T03:44:57;22.30;71.70
2995;DHT22;35277;49.890;8.222;2023-11-19T03:47:25;22.30;71.70
2995;DHT22;35277;49.890;8.222;2023-11-19T03:49:53;22.30;71.70
2995;DHT22;35277;49.890;8.222;2023-11-19T03:52:22;22.30;71.70
2995;DHT22;35277;49.890;8.222;2023-11-19T03:54:50;22.30;71.70
2995;DHT22;35277;49.890;8.222;2023-11-19T03:57:18;22.30;71.70
2995;DHT22;35277;49.890;8.222;2023-11-19T03:59:46;22.30;71.70
2995;DHT22;35277;49.890;8.222;2023-11-19T04:02:13;22.30;71.70
2995;DHT22;35277;49.890;8.222;2023-11-19T04:04:41;22.30;71.70
2995;DHT22;35277;49.890;8.222;2023-11-19T04:07:09;22.30;71.70
2995;DHT22;35277;49.890;8.222;2023-11-19T04:09:38;22.30;71.70
2995;DHT22;35277;49.890;8.222;2023-11-19T04:12:06;22.30;71.70
2995;DHT22;35277;49.890;8.222;2023-11-19T04:14:36;22.30;71.70
2995;DHT22;35277;49.890;8.222;2023-11-19T04:17:04;22.30;71.70
2995;DHT22;35277;49.890;8.222;2023-11-19T04:19:32;22.30;71.70
2995;DHT22;35277;49.890;8.222;2023-11-19T04:22:00;22.30;71.80
2995;DHT22;35277;49.890;8.222;2023-11-19T04:24:28;22.30;71.80
2995;DHT22;35277;49.890;8.222;2023-11-19T04:26:57;22.30;71.70
2995;DHT22;35277;49.890;8.222;2023-11-19T04:29:24;22.30;71.80
2995;DHT22;35277;49.890;8.222;2023-11-19T04:31:53;22.30;71.80
2995;DHT22;35277;49.890;8.222;2023-11-19T04:34:21;22.30;71.80
2995;DHT22;35277;49.890;8.222;2023-11-19T04:36:49;22.30;71.80
2995;DHT22;35277;49.890;8.222;2023-11-19T04:39:17;22.30;71.80
2995;DHT22;35277;49.890;8.222;2023-11-19T04:41:46;22.30;71.80
2995;DHT22;35277;49.890;8.222;2023-11-19T04:44:15;22.30;71.80
2995;DHT22;35277;49.890;8.222;2023-11-19T04:46:44;22.30;71.80
2995;DHT22;35277;49.890;8.222;2023-11-19T04:49:13;22.30;71.80
2995;DHT22;35277;49.890;8.222;2023-11-19T04:51:42;22.30;71.80
2995;DHT22;35277;49.890;8.222;2023-11-19T04:54:10;22.30;71.80
2995;DHT22;35277;49.890;8.222;2023-11-19T04:56:38;22.30;71.90
2995;DHT22;35277;49.890;8.222;2023-11-19T04:59:06;22.30;71.80
2995;DHT22;35277;49.890;8.222;2023-11-19T05:01:36;22.30;71.80
2995;DHT22;35277;49.890;8.222;2023-11-19T05:04:04;22.30;71.80
2995;DHT22;35277;49.890;8.222;2023-11-19T05:06:34;22.30;71.80
2995;DHT22;35277;49.890;8.222;2023-11-19T05:09:02;22.30;71.80
2995;DHT22;35277;49.890;8.222;2023-11-19T05:11:32;22.30;71.80
2995;DHT22;35277;49.890;8.222;2023-11-19T05:14:02;22.30;71.80
2995;DHT22;35277;49.890;8.222;2023-11-19T05:16:31;22.30;71.80
2995;DHT22;35277;49.890;8.222;2023-11-19T05:19:01;22.30;71.80
2995;DHT22;35277;49.890;8.222;2023-11-19T05:21:29;22.30;71.80
2995;DHT22;35277;49.890;8.222;2023-11-19T05:23:56;22.30;71.80
2995;DHT22;35277;49.890;8.222;2023-11-19T05:26:24;22.30;71.80
2995;DHT22;35277;49.890;8.222;2023-11-19T05:28:52;22.30;71.70
2995;DHT22;35277;49.890;8.222;2023-11-19T05:31:20;22.30;71.80
2995;DHT22;35277;49.890;8.222;2023-11-19T05:33:48;22.30;71.70
2995;DHT22;35277;49.890;8.222;2023-11-19T05:36:17;22.30;71.70
2995;DHT22;35277;49.890;8.222;2023-11-19T05:38:45;22.30;71.70
2995;DHT22;35277;49.890;8.222;2023-11-19T05:41:12;22.30;71.70
2995;DHT22;35277;49.890;8.222;2023-11-19T05:43:40;22.30;71.70
2995;DHT22;35277;49.890;8.222;2023-11-19T05:46:08;22.30;71.70
2995;DHT22;35277;49.890;8.222;2023-11-19T05:48:39;22.30;71.70
2995;DHT22;35277;49.890;8.222;2023-11-19T05:51:07;22.30;71.70
2995;DHT22;35277;49.890;8.222;2023-11-19T05:53:36;22.30;71.60
2995;DHT22;35277;49.890;8.222;2023-11-19T05:56:04;22.30;71.70
2995;DHT22;35277;49.890;8.222;2023-11-19T05:58:36;22.30;71.70
2995;DHT22;35277;49.890;8.222;2023-11-19T06:01:05;22.30;71.70
2995;DHT22;35277;49.890;8.222;2023-11-19T06:03:34;22.30;71.70
2995;DHT22;35277;49.890;8.222;2023-11-19T06:06:03;22.30;71.60
2995;DHT22;35277;49.890;8.222;2023-11-19T06:08:31;22.30;71.70
2995;DHT22;35277;49.890;8.222;2023-11-19T06:11:00;22.30;71.60
2995;DHT22;35277;49.890;8.222;2023-11-19T06:13:28;22.30;71.70
2995;DHT22;35277;49.890;8.222;2023-11-19T06:15:58;22.30;71.60
2995;DHT22;35277;49.890;8.222;2023-11-19T06:18:26;22.30;71.60
2995;DHT22;35277;49.890;8.222;2023-11-19T06:20:54;22.30;71.60
2995;DHT22;35277;49.890;8.222;2023-11-19T06:23:22;22.30;71.70
2995;DHT22;35277;49.890;8.222;2023-11-19T06:25:50;22.30;71.60
2995;DHT22;35277;49.890;8.222;2023-11-19T06:28:19;22.30;71.60
2995;DHT22;35277;49.890;8.222;2023-11-19T06:30:47;22.30;71.60
2995;DHT22;35277;49.890;8.222;2023-11-19T06:33:15;22.30;71.60
2995;DHT22;35277;49.890;8.222;2023-11-19T06:35:43;22.30;71.60
2995;DHT22;35277;49.890;8.222;2023-11-19T06:38:11;22.30;71.60
2995;DHT22;35277;49.890;8.222;2023-11-19T06:40:39;22.30;71.60
2995;DHT22;35277;49.890;8.222;2023-11-19T06:43:07;22.30;71.60
2995;DHT22;35277;49.890;8.222;2023-11-19T06:45:37;22.30;71.70
2995;DHT22;35277;49.890;8.222;2023-11-19T06:48:05;22.30;72.00
2995;DHT22;35277;49.890;8.222;2023-11-19T06:50:33;22.30;72.40
2995;DHT22;35277;49.890;8.222;2023-11-19T06:53:02;22.30;72.70
2995;DHT22;35277;49.890;8.222;2023-11-19T06:55:31;22.30;72.90
2995;DHT22;35277;49.890;8.222;2023-11-19T06:58:00;22.30;73.10
2995;DHT22;35277;49.890;8.222;2023-11-19T07:00:29;22.30;73.20
2995;DHT22;35277;49.890;8.222;2023-11-19T07:03:00;22.40;73.40
2995;DHT22;35277;49.890;8.222;2023-11-19T07:05:28;22.40;73.50
2995;DHT22;35277;49.890;8.222;2023-11-19T07:07:56;22.40;73.60
2995;DHT22;35277;49.890;8.222;2023-11-19T07:10:24;22.40;73.70
2995;DHT22;35277;49.890;8.222;2023-11-19T07:12:52;22.40;73.80
2995;DHT22;35277;49.890;8.222;2023-11-19T07:15:19;22.40;73.80
2995;DHT22;35277;49.890;8.222;2023-11-19T07:17:47;22.40;73.80
2995;DHT22;35277;49.890;8.222;2023-11-19T07:20:28;22.50;74.00
2995;DHT22;35277;49.890;8.222;2023-11-19T07:22:56;22.40;73.90
2995;DHT22;35277;49.890;8.222;2023-11-19T07:25:24;22.40;73.90
2995;DHT22;35277;49.890;8.222;2023-11-19T07:27:53;22.40;74.00
2995;DHT22;35277;49.890;8.222;2023-11-19T07:30:22;22.40;74.00
2995;DHT22;35277;49.890;8.222;2023-11-19T07:32:50;22.40;74.00
2995;DHT22;35277;49.890;8.222;2023-11-19T07:35:17;22.40;74.00
2995;DHT22;35277;49.890;8.222;2023-11-19T07:37:48;22.40;74.00
2995;DHT22;35277;49.890;8.222;2023-11-19T07:40:17;22.50;74.20
2995;DHT22;35277;49.890;8.222;2023-11-19T07:42:45;22.40;74.10
2995;DHT22;35277;49.890;8.222;2023-11-19T07:45:13;22.40;74.00
2995;DHT22;35277;49.890;8.222;2023-11-19T07:47:41;22.40;74.10
2995;DHT22;35277;49.890;8.222;2023-11-19T07:50:10;22.50;74.20
2995;DHT22;35277;49.890;8.222;2023-11-19T07:52:40;22.50;74.20
2995;DHT22;35277;49.890;8.222;2023-11-19T07:55:09;22.50;74.20
2995;DHT22;35277;49.890;8.222;2023-11-19T07:57:37;22.50;75.00
2995;DHT22;35277;49.890;8.222;2023-11-19T08:00:06;22.50;74.20
2995;DHT22;35277;49.890;8.222;2023-11-19T08:02:39;22.50;74.10
2995;DHT22;35277;49.890;8.222;2023-11-19T08:05:07;22.50;74.10
2995;DHT22;35277;49.890;8.222;2023-11-19T08:07:35;22.50;74.10
2995;DHT22;35277;49.890;8.222;2023-11-19T08:10:04;22.50;74.00
2995;DHT22;35277;49.890;8.222;2023-11-19T08:12:37;22.50;74.00
2995;DHT22;35277;49.890;8.222;2023-11-19T08:15:06;22.50;73.90
2995;DHT22;35277;49.890;8.222;2023-11-19T08:17:34;22.50;73.90
2995;DHT22;35277;49.890;8.222;2023-11-19T08:20:02;22.50;73.80
2995;DHT22;35277;49.890;8.222;2023-11-19T08:22:31;22.40;73.60
2995;DHT22;35277;49.890;8.222;2023-11-19T08:24:59;22.50;73.70
2995;DHT22;35277;49.890;8.222;2023-11-19T08:27:27;22.50;73.70
2995;DHT22;35277;49.890;8.222;2023-11-19T08:29:56;22.50;73.70
2995;DHT22;35277;49.890;8.222;2023-11-19T08:32:24;22.50;73.60
2995;DHT22;35277;49.890;8.222;2023-11-19T08:34:52;22.50;73.60
2995;DHT22;35277;49.890;8.222;2023-11-19T08:37:20;22.40;73.50
2995;DHT22;35277;49.890;8.222;2023-11-19T08:39:50;22.40;73.40
2995;DHT22;35277;49.890;8.222;2023-11-19T08:42:18;22.40;73.40
2995;DHT22;35277;49.890;8.222;2023-11-19T08:44:49;22.40;73.40
2995;DHT22;35277;49.890;8.222;2023-11-19T08:47:18;22.40;73.30
2995;DHT22;35277;49.890;8.222;2023-11-19T08:49:46;22.40;74.10
2995;DHT22;35277;49.890;8.222;2023-11-19T08:52:29;22.40;73.30
2995;DHT22;35277;49.890;8.222;2023-11-19T08:55:01;22.40;73.20
2995;DHT22;35277;49.890;8.222;2023-11-19T08:57:29;22.40;73.40
2995;DHT22;35277;49.890;8.222;2023-11-19T08:59:56;22.40;73.20
2995;DHT22;35277;49.890;8.222;2023-11-19T09:02:26;22.40;73.20
2995;DHT22;35277;49.890;8.222;2023-11-19T09:04:54;22.40;73.20
2995;DHT22;35277;49.890;8.222;2023-11-19T09:07:22;22.40;73.10
2995;DHT22;35277;49.890;8.222;2023-11-19T09:09:50;22.40;73.10
2995;DHT22;35277;49.890;8.222;2023-11-19T09:12:17;22.40;73.10
2995;DHT22;35277;49.890;8.222;2023-11-19T09:14:45;22.40;73.00
2995;DHT22;35277;49.890;8.222;2023-11-19T09:17:13;22.40;73.10
2995;DHT22;35277;49.890;8.222;2023-11-19T09:19:42;22.40;73.00
2995;DHT22;35277;49.890;8.222;2023-11-19T09:22:10;22.40;73.00
2995;DHT22;35277;49.890;8.222;2023-11-19T09:24:37;22.40;72.90
2995;DHT22;35277;49.890;8.222;2023-11-19T09:27:05;22.40;72.90
2995;DHT22;35277;49.890;8.222;2023-11-19T09:29:33;22.40;73.00
2995;DHT22;35277;49.890;8.222;2023-11-19T09:32:01;22.40;73.10
2995;DHT22;35277;49.890;8.222;2023-11-19T09:34:31;22.40;73.20
2995;DHT22;35277;49.890;8.222;2023-11-19T09:37:00;22.40;73.20
2995;DHT22;35277;49.890;8.222;2023-11-19T09:39:29;22.40;73.30
2995;DHT22;35277;49.890;8.222;2023-11-19T09:41:57;22.40;73.30
2995;DHT22;35277;49.890;8.222;2023-11-19T09:44:25;22.40;73.30
2995;DHT22;35277;49.890;8.222;2023-11-19T09:46:54;22.40;73.30
2995;DHT22;35277;49.890;8.222;2023-11-19T09:49:26;22.40;73.40
2995;DHT22;35277;49.890;8.222;2023-11-19T09:51:57;22.40;73.40
2995;DHT22;35277;49.890;8.222;2023-11-19T09:54:26;22.40;73.50
2995;DHT22;35277;49.890;8.222;2023-11-19T09:56:56;22.40;73.50
2995;DHT22;35277;49.890;8.222;2023-11-19T09:59:27;22.50;73.70
2995;DHT22;35277;49.890;8.222;2023-11-19T10:01:56;22.50;73.70
2995;DHT22;35277;49.890;8.222;2023-11-19T10:04:24;22.50;73.80
2995;DHT22;35277;49.890;8.222;2023-11-19T10:06:53;22.50;74.00
2995;DHT22;35277;49.890;8.222;2023-11-19T10:09:21;22.50;74.10
2995;DHT22;35277;49.890;8.222;2023-11-19T10:11:50;22.50;74.20
2995;DHT22;35277;49.890;8.222;2023-11-19T10:14:19;22.50;74.30
2995;DHT22;35277;49.890;8.222;2023-11-19T10:16:49;22.50;74.30
2995;DHT22;35277;49.890;8.222;2023-11-19T10:19:19;22.50;74.30
2995;DHT22;35277;49.890;8.222;2023-11-19T10:21:47;22.60;74.50
2995;DHT22;35277;49.890;8.222;2023-11-19T10:24:15;22.60;74.50
2995;DHT22;35277;49.890;8.222;2023-11-19T10:26:46;22.60;74.50
2995;DHT22;35277;49.890;8.222;2023-11-19T10:29:15;22.60;74.40
2995;DHT22;35277;49.890;8.222;2023-11-19T10:31:55;22.60;74.30
2995;DHT22;35277;49.890;8.222;2023-11-19T10:34:27;22.60;74.40
2995;DHT22;35277;49.890;8.222;2023-11-19T10:36:56;22.60;74.30
2995;DHT22;35277;49.890;8.222;2023-11-19T10:39:33;22.60;74.30
2995;DHT22;35277;49.890;8.222;2023-11-19T10:42:20;22.60;74.30
2995;DHT22;35277;49.890;8.222;2023-11-19T10:44:49;22.60;74.20
2995;DHT22;35277;49.890;8.222;2023-11-19T10:47:19;22.60;74.20
2995;DHT22;35277;49.890;8.222;2023-11-19T10:50:05;22.70;74.20
2995;DHT22;35277;49.890;8.222;2023-11-19T10:52:33;22.70;74.10
2995;DHT22;35277;49.890;8.222;2023-11-19T10:55:03;22.70;74.10
2995;DHT22;35277;49.890;8.222;2023-11-19T10:57:36;22.70;74.10
2995;DHT22;35277;49.890;8.222;2023-11-19T11:00:11;22.70;74.10
2995;DHT22;35277;49.890;8.222;2023-11-19T11:02:41;22.70;74.10
2995;DHT22;35277;49.890;8.222;2023-11-19T11:05:12;22.70;74.00
2995;DHT22;35277;49.890;8.222;2023-11-19T11:07:40;22.70;74.00
2995;DHT22;35277;49.890;8.222;2023-11-19T11:10:11;22.70;74.00
2995;DHT22;35277;49.890;8.222;2023-11-19T11:12:41;22.70;74.00
2995;DHT22;35277;49.890;8.222;2023-11-19T11:15:11;22.80;74.10
2995;DHT22;35277;49.890;8.222;2023-11-19T11:17:41;22.80;74.10
2995;DHT22;35277;49.890;8.222;2023-11-19T11:20:11;22.80;74.10
2995;DHT22;35277;49.890;8.222;2023-11-19T11:22:49;22.80;74.10
2995;DHT22;35277;49.890;8.222;2023-11-19T11:25:28;22.80;74.10
2995;DHT22;35277;49.890;8.222;2023-11-19T11:28:16;22.80;74.20
2995;DHT22;35277;49.890;8.222;2023-11-19T11:31:00;22.80;74.30
2995;DHT22;35277;49.890;8.222;2023-11-19T11:33:41;22.80;74.30
2995;DHT22;35277;49.890;8.222;2023-11-19T11:36:31;22.80;74.30
2995;DHT22;35277;49.890;8.222;2023-11-19T11:39:02;22.80;74.40
2995;DHT22;35277;49.890;8.222;2023-11-19T11:41:34;22.80;74.50
2995;DHT22;35277;49.890;8.222;2023-11-19T11:44:02;22.80;74.70
2995;DHT22;35277;49.890;8.222;2023-11-19T11:46:55;22.80;74.80
2995;DHT22;35277;49.890;8.222;2023-11-19T11:49:25;22.80;74.80
2995;DHT22;35277;49.890;8.222;2023-11-19T11:52:03;22.80;74.70
2995;DHT22;35277;49.890;8.222;2023-11-19T11:54:32;22.80;74.60
2995;DHT22;35277;49.890;8.222;2023-11-19T11:57:02;22.80;74.70
2995;DHT22;35277;49.890;8.222;2023-11-19T11:59:41;22.80;74.70
2995;DHT22;35277;49.890;8.222;2023-11-19T12:02:13;22.80;74.70
2995;DHT22;35277;49.890;8.222;2023-11-19T12:04:42;22.80;74.60
2995;DHT22;35277;49.890;8.222;2023-11-19T12:07:14;22.90;74.50
2995;DHT22;35277;49.890;8.222;2023-11-19T12:09:42;22.90;74.40
2995;DHT22;35277;49.890;8.222;2023-11-19T12:12:18;22.90;74.00
2995;DHT22;35277;49.890;8.222;2023-11-19T12:15:04;22.90;73.80
2995;DHT22;35277;49.890;8.222;2023-11-19T12:17:42;22.90;73.50
2995;DHT22;35277;49.890;8.222;2023-11-19T12:20:12;22.90;73.30
2995;DHT22;35277;49.890;8.222;2023-11-19T12:22:40;22.90;73.00
2995;DHT22;35277;49.890;8.222;2023-11-19T12:25:10;22.90;72.80
2995;DHT22;35277;49.890;8.222;2023-11-19T12:27:39;22.90;72.60
2995;DHT22;35277;49.890;8.222;2023-11-19T12:30:08;22.90;72.40
2995;DHT22;35277;49.890;8.222;2023-11-19T12:32:41;22.90;72.20
2995;DHT22;35277;49.890;8.222;2023-11-19T12:35:10;22.90;72.00
2995;DHT22;35277;49.890;8.222;2023-11-19T12:37:40;22.90;71.80
2995;DHT22;35277;49.890;8.222;2023-11-19T12:40:15;22.90;71.50
2995;DHT22;35277;49.890;8.222;2023-11-19T12:42:44;22.90;71.30
2995;DHT22;35277;49.890;8.222;2023-11-19T12:45:11;22.90;71.20
2995;DHT22;35277;49.890;8.222;2023-11-19T12:47:41;22.90;71.10
2995;DHT22;35277;49.890;8.222;2023-11-19T12:50:10;22.90;71.00
2995;DHT22;35277;49.890;8.222;2023-11-19T12:52:38;22.90;71.00
2995;DHT22;35277;49.890;8.222;2023-11-19T12:55:24;23.00;71.20
2995;DHT22;35277;49.890;8.222;2023-11-19T12:57:57;23.00;71.20
2995;DHT22;35277;49.890;8.222;2023-11-19T13:00:26;23.00;71.30
2995;DHT22;35277;49.890;8.222;2023-11-19T13:02:57;23.00;71.30
2995;DHT22;35277;49.890;8.222;2023-11-19T13:05:27;23.00;71.40
2995;DHT22;35277;49.890;8.222;2023-11-19T13:08:02;23.00;71.50
2995;DHT22;35277;49.890;8.222;2023-11-19T13:10:31;23.00;71.50
2995;DHT22;35277;49.890;8.222;2023-11-19T13:13:03;23.00;71.60
2995;DHT22;35277;49.890;8.222;2023-11-19T13:15:32;23.00;71.50
2995;DHT22;35277;49.890;8.222;2023-11-19T13:18:02;23.00;71.50
2995;DHT22;35277;49.890;8.222;2023-11-19T13:20:30;23.00;71.60
2995;DHT22;35277;49.890;8.222;2023-11-19T13:22:59;23.00;71.60
2995;DHT22;35277;49.890;8.222;2023-11-19T13:25:27;23.00;71.60
2995;DHT22;35277;49.890;8.222;2023-11-19T13:27:55;23.00;71.60
2995;DHT22;35277;49.890;8.222;2023-11-19T13:30:24;23.10;71.70
2995;DHT22;35277;49.890;8.222;2023-11-19T13:32:53;23.10;71.70
2995;DHT22;35277;49.890;8.222;2023-11-19T13:35:24;23.10;71.70
2995;DHT22;35277;49.890;8.222;2023-11-19T13:37:54;23.10;71.80
2995;DHT22;35277;49.890;8.222;2023-11-19T13:40:22;23.10;71.80
2995;DHT22;35277;49.890;8.222;2023-11-19T13:42:51;23.10;71.70
2995;DHT22;35277;49.890;8.222;2023-11-19T13:45:19;23.10;71.80
2995;DHT22;35277;49.890;8.222;2023-11-19T13:47:48;23.10;71.70
2995;DHT22;35277;49.890;8.222;2023-11-19T13:50:16;23.10;71.80
2995;DHT22;35277;49.890;8.222;2023-11-19T13:52:45;23.10;71.80
2995;DHT22;35277;49.890;8.222;2023-11-19T13:55:14;23.10;71.90
2995;DHT22;35277;49.890;8.222;2023-11-19T13:57:42;23.10;71.90
2995;DHT22;35277;49.890;8.222;2023-11-19T14:00:11;23.00;71.80
2995;DHT22;35277;49.890;8.222;2023-11-19T14:02:40;23.00;71.80
2995;DHT22;35277;49.890;8.222;2023-11-19T14:05:09;23.00;71.90
2995;DHT22;35277;49.890;8.222;2023-11-19T14:07:37;23.00;71.90
2995;DHT22;35277;49.890;8.222;2023-11-19T14:10:07;23.00;71.90
2995;DHT22;35277;49.890;8.222;2023-11-19T14:12:35;23.00;71.90
2995;DHT22;35277;49.890;8.222;2023-11-19T14:15:04;23.00;71.80
2995;DHT22;35277;49.890;8.222;2023-11-19T14:17:33;23.00;71.90
2995;DHT22;35277;49.890;8.222;2023-11-19T14:20:01;23.00;71.80
2995;DHT22;35277;49.890;8.222;2023-11-19T14:22:29;23.00;71.80
2995;DHT22;35277;49.890;8.222;2023-11-19T14:24:57;23.00;71.80
2995;DHT22;35277;49.890;8.222;2023-11-19T14:27:26;23.00;71.80
2995;DHT22;35277;49.890;8.222;2023-11-19T14:29:54;23.00;71.80
2995;DHT22;35277;49.890;8.222;2023-11-19T14:32:22;23.00;71.70
2995;DHT22;35277;49.890;8.222;2023-11-19T14:34:50;23.00;71.70
2995;DHT22;35277;49.890;8.222;2023-11-19T14:37:18;23.00;71.70
2995;DHT22;35277;49.890;8.222;2023-11-19T14:39:45;23.00;71.70
2995;DHT22;35277;49.890;8.222;2023-11-19T14:42:15;23.00;71.70
2995;DHT22;35277;49.890;8.222;2023-11-19T14:44:45;23.00;71.60
2995;DHT22;35277;49.890;8.222;2023-11-19T14:47:12;23.00;71.60
2995;DHT22;35277;49.890;8.222;2023-11-19T14:49:40;23.00;71.60
2995;DHT22;35277;49.890;8.222;2023-11-19T14:52:08;23.00;71.70
2995;DHT22;35277;49.890;8.222;2023-11-19T14:54:39;23.00;71.60
2995;DHT22;35277;49.890;8.222;2023-11-19T14:57:07;23.00;71.60
2995;DHT22;35277;49.890;8.222;2023-11-19T14:59:36;23.00;71.60
2995;DHT22;35277;49.890;8.222;2023-11-19T15:02:06;23.00;71.70
2995;DHT22;35277;49.890;8.222;2023-11-19T15:04:34;23.00;71.70
2995;DHT22;35277;49.890;8.222;2023-11-19T15:07:02;23.00;71.70
2995;DHT22;35277;49.890;8.222;2023-11-19T15:09:31;23.00;71.60
2995;DHT22;35277;49.890;8.222;2023-11-19T15:11:59;23.00;71.60
2995;DHT22;35277;49.890;8.222;2023-11-19T15:14:28;23.00;71.70
2995;DHT22;35277;49.890;8.222;2023-11-19T15:16:57;23.00;71.70
2995;DHT22;35277;49.890;8.222;2023-11-19T15:19:26;23.00;71.70
2995;DHT22;35277;49.890;8.222;2023-11-19T15:21:54;23.00;71.70
2995;DHT22;35277;49.890;8.222;2023-11-19T15:24:22;22.90;71.70
2995;DHT22;35277;49.890;8.222;2023-11-19T15:26:52;22.90;71.70
2995;DHT22;35277;49.890;8.222;2023-11-19T15:29:38;22.90;71.80
2995;DHT22;35277;49.890;8.222;2023-11-19T15:32:06;22.90;71.80
2995;DHT22;35277;49.890;8.222;2023-11-19T15:34:36;22.90;71.80
2995;DHT22;35277;49.890;8.222;2023-11-19T15:37:05;22.90;71.80
2995;DHT22;35277;49.890;8.222;2023-11-19T15:39:33;22.90;71.90
2995;DHT22;35277;49.890;8.222;2023-11-19T15:42:03;22.90;71.90
2995;DHT22;35277;49.890;8.222;2023-11-19T15:44:30;22.90;71.90
2995;DHT22;35277;49.890;8.222;2023-11-19T15:46:58;22.90;71.90
2995;DHT22;35277;49.890;8.222;2023-11-19T15:49:26;22.90;71.90
2995;DHT22;35277;49.890;8.222;2023-11-19T15:51:56;22.90;71.90
2995;DHT22;35277;49.890;8.222;2023-11-19T15:54:23;22.90;71.80
2995;DHT22;35277;49.890;8.222;2023-11-19T15:56:51;22.90;71.80
2995;DHT22;35277;49.890;8.222;2023-11-19T15:59:19;22.80;71.60